sensor_id;sensor_type;location;lat;lon;timestamp;pressure;altitude;pressure_sealevel;temperature;humidity
72118;BME280;59992;47.490;8.736;2022-10-01T00:01:18;96525.09;;;7.42;95.18
72118;BME280;59992;47.490;8.736;2022-10-01T00:04:09;96527.95;;;7.48;94.45
72118;BME280;59992;47.490;8.736;2022-10-01T00:07:00;96524.89;;;7.52;93.43
72118;BME280;59992;47.490;8.736;2022-10-01T00:09:52;96522.09;;;7.58;94.42
72118;BME280;59992;47.490;8.736;2022-10-01T00:12:46;96523.46;;;7.62;94.20
72118;BME280;59992;47.490;8.736;2022-10-01T00:15:41;96520.41;;;7.67;94.06
72118;BME280;59992;47.490;8.736;2022-10-01T00:18:33;96517.98;;;7.72;94.76
72118;BME280;59992;47.490;8.736;2022-10-01T00:21:25;96517.66;;;7.78;94.78
72118;BME280;59992;47.490;8.736;2022-10-01T00:24:16;96513.79;;;7.83;93.93
72118;BME280;59992;47.490;8.736;2022-10-01T00:27:07;96514.31;;;7.83;93.16
72118;BME280;59992;47.490;8.736;2022-10-01T00:29:59;96517.59;;;7.82;93.30
72118;BME280;59992;47.490;8.736;2022-10-01T00:32:53;96517.00;;;7.82;92.86
72118;BME280;59992;47.490;8.736;2022-10-01T00:35:44;96509.65;;;7.80;92.04
72118;BME280;59992;47.490;8.736;2022-10-01T00:38:35;96499.81;;;7.75;92.26
72118;BME280;59992;47.490;8.736;2022-10-01T00:41:26;96505.30;;;7.71;91.03
72118;BME280;59992;47.490;8.736;2022-10-01T00:44:33;96510.79;;;7.64;91.63
72118;BME280;59992;47.490;8.736;2022-10-01T00:47:27;96516.45;;;7.58;91.76
72118;BME280;59992;47.490;8.736;2022-10-01T00:50:23;96515.24;;;7.55;91.74
72118;BME280;59992;47.490;8.736;2022-10-01T00:53:15;96516.61;;;7.50;91.09
72118;BME280;59992;47.490;8.736;2022-10-01T00:56:06;96516.63;;;7.43;91.87
72118;BME280;59992;47.490;8.736;2022-10-01T00:58:57;96514.36;;;7.41;90.85
72118;BME280;59992;47.490;8.736;2022-10-01T01:01:48;96510.18;;;7.36;90.34
72118;BME280;59992;47.490;8.736;2022-10-01T01:04:38;96506.01;;;7.32;90.18
72118;BME280;59992;47.490;8.736;2022-10-01T01:07:31;96504.45;;;7.26;91.47
72118;BME280;59992;47.490;8.736;2022-10-01T01:10:27;96507.76;;;7.20;91.16
72118;BME280;59992;47.490;8.736;2022-10-01T01:13:25;96505.91;;;7.12;91.78
72118;BME280;59992;47.490;8.736;2022-10-01T01:16:24;96507.56;;;7.09;91.82
72118;BME280;59992;47.490;8.736;2022-10-01T01:19:30;96497.02;;;7.06;91.93
72118;BME280;59992;47.490;8.736;2022-10-01T01:22:25;96482.55;;;7.02;91.26
72118;BME280;59992;47.490;8.736;2022-10-01T01:25:19;96482.46;;;7.00;92.77
72118;BME280;59992;47.490;8.736;2022-10-01T01:28:20;96495.15;;;6.98;92.45
72118;BME280;59992;47.490;8.736;2022-10-01T01:31:16;96497.94;;;6.95;92.62
72118;BME280;59992;47.490;8.736;2022-10-01T01:34:14;96486.34;;;6.92;92.59
72118;BME280;59992;47.490;8.736;2022-10-01T01:37:10;96490.77;;;6.89;92.30
72118;BME280;59992;47.490;8.736;2022-10-01T01:40:05;96495.93;;;6.87;92.74
72118;BME280;59992;47.490;8.736;2022-10-01T01:43:00;96496.69;;;6.85;92.63
72118;BME280;59992;47.490;8.736;2022-10-01T01:45:53;96502.56;;;6.85;93.04
72118;BME280;59992;47.490;8.736;2022-10-01T01:48:45;96505.94;;;6.87;92.82
72118;BME280;59992;47.490;8.736;2022-10-01T01:51:42;96511.10;;;6.89;93.19
72118;BME280;59992;47.490;8.736;2022-10-01T01:54:35;96508.65;;;6.90;92.75
72118;BME280;59992;47.490;8.736;2022-10-01T01:57:26;96502.11;;;6.93;92.72
72118;BME280;59992;47.490;8.736;2022-10-01T02:00:17;96499.98;;;6.96;93.34
72118;BME280;59992;47.490;8.736;2022-10-01T02:03:08;96504.00;;;6.99;93.49
72118;BME280;59992;47.490;8.736;2022-10-01T02:06:06;96501.42;;;7.02;92.76
72118;BME280;59992;47.490;8.736;2022-10-01T02:09:05;96497.30;;;7.02;92.43
72118;BME280;59992;47.490;8.736;2022-10-01T02:12:09;96487.48;;;7.01;92.45
72118;BME280;59992;47.490;8.736;2022-10-01T02:15:07;96484.40;;;6.99;92.78
72118;BME280;59992;47.490;8.736;2022-10-01T02:18:06;96487.35;;;7.00;93.05
72118;BME280;59992;47.490;8.736;2022-10-01T02:21:05;96482.72;;;7.01;92.66
72118;BME280;59992;47.490;8.736;2022-10-01T02:24:02;96476.70;;;7.03;92.59
72118;BME280;59992;47.490;8.736;2022-10-01T02:26:57;96473.35;;;7.05;93.41
72118;BME280;59992;47.490;8.736;2022-10-01T02:29:50;96465.48;;;7.06;93.71
72118;BME280;59992;47.490;8.736;2022-10-01T02:32:44;96460.50;;;7.10;92.74
72118;BME280;59992;47.490;8.736;2022-10-01T02:35:37;96462.01;;;7.16;92.80
72118;BME280;59992;47.490;8.736;2022-10-01T02:38:28;96461.63;;;7.21;94.27
72118;BME280;59992;47.490;8.736;2022-10-01T02:41:25;96455.58;;;7.27;94.44
72118;BME280;59992;47.490;8.736;2022-10-01T02:44:18;96451.89;;;7.33;94.56
72118;BME280;59992;47.490;8.736;2022-10-01T02:47:13;96450.98;;;7.40;94.55
72118;BME280;59992;47.490;8.736;2022-10-01T02:50:07;96452.42;;;7.47;94.63
72118;BME280;59992;47.490;8.736;2022-10-01T02:53:03;96454.88;;;7.51;94.27
72118;BME280;59992;47.490;8.736;2022-10-01T02:55:56;96451.82;;;7.56;94.34
72118;BME280;59992;47.490;8.736;2022-10-01T02:58:48;96453.87;;;7.60;95.42
72118;BME280;59992;47.490;8.736;2022-10-01T03:01:40;96456.61;;;7.65;94.84
72118;BME280;59992;47.490;8.736;2022-10-01T03:04:31;96455.98;;;7.71;95.38
72118;BME280;59992;47.490;8.736;2022-10-01T03:07:21;96449.94;;;7.77;95.14
72118;BME280;59992;47.490;8.736;2022-10-01T03:10:13;96450.27;;;7.82;94.19
72118;BME280;59992;47.490;8.736;2022-10-01T03:13:04;96446.52;;;7.86;94.43
72118;BME280;59992;47.490;8.736;2022-10-01T03:15:56;96441.39;;;7.89;94.82
72118;BME280;59992;47.490;8.736;2022-10-01T03:18:46;96437.75;;;7.92;94.49
72118;BME280;59992;47.490;8.736;2022-10-01T03:21:37;96435.77;;;7.95;94.94
72118;BME280;59992;47.490;8.736;2022-10-01T03:24:28;96440.64;;;8.00;94.91
72118;BME280;59992;47.490;8.736;2022-10-01T03:27:20;96439.18;;;8.07;94.79
72118;BME280;59992;47.490;8.736;2022-10-01T03:30:11;96438.23;;;8.11;94.11
72118;BME280;59992;47.490;8.736;2022-10-01T03:33:02;96440.77;;;8.18;93.62
72118;BME280;59992;47.490;8.736;2022-10-01T03:35:53;96438.82;;;8.22;93.72
72118;BME280;59992;47.490;8.736;2022-10-01T03:38:44;96443.08;;;8.23;93.81
72118;BME280;59992;47.490;8.736;2022-10-01T03:41:34;96441.95;;;8.24;93.67
72118;BME280;59992;47.490;8.736;2022-10-01T03:44:26;96444.35;;;8.23;93.49
72118;BME280;59992;47.490;8.736;2022-10-01T03:47:17;96447.25;;;8.21;93.12
72118;BME280;59992;47.490;8.736;2022-10-01T03:50:08;96452.95;;;8.20;93.54
72118;BME280;59992;47.490;8.736;2022-10-01T03:52:59;96452.14;;;8.17;93.07
72118;BME280;59992;47.490;8.736;2022-10-01T03:55:50;96459.02;;;8.14;92.77
72118;BME280;59992;47.490;8.736;2022-10-01T03:58:41;96459.95;;;8.11;92.94
72118;BME280;59992;47.490;8.736;2022-10-01T04:01:31;96460.84;;;8.10;92.98
72118;BME280;59992;47.490;8.736;2022-10-01T04:04:22;96455.84;;;8.06;92.66
72118;BME280;59992;47.490;8.736;2022-10-01T04:07:12;96455.78;;;8.03;92.89
72118;BME280;59992;47.490;8.736;2022-10-01T04:10:03;96452.86;;;8.01;93.14
72118;BME280;59992;47.490;8.736;2022-10-01T04:12:54;96448.63;;;8.00;93.28
72118;BME280;59992;47.490;8.736;2022-10-01T04:15:45;96451.23;;;7.99;93.43
72118;BME280;59992;47.490;8.736;2022-10-01T04:18:36;96452.31;;;7.96;93.34
72118;BME280;59992;47.490;8.736;2022-10-01T04:21:26;96447.38;;;7.94;93.28
72118;BME280;59992;47.490;8.736;2022-10-01T04:24:18;96452.30;;;7.92;92.97
72118;BME280;59992;47.490;8.736;2022-10-01T04:27:08;96460.09;;;7.93;93.29
72118;BME280;59992;47.490;8.736;2022-10-01T04:29:58;96465.02;;;7.94;92.79
72118;BME280;59992;47.490;8.736;2022-10-01T04:32:50;96460.05;;;7.95;93.08
72118;BME280;59992;47.490;8.736;2022-10-01T04:35:40;96467.04;;;7.94;93.60
72118;BME280;59992;47.490;8.736;2022-10-01T04:38:31;96467.91;;;7.96;93.36
72118;BME280;59992;47.490;8.736;2022-10-01T04:41:22;96464.62;;;7.96;92.92
72118;BME280;59992;47.490;8.736;2022-10-01T04:44:13;96460.39;;;8.00;93.39
72118;BME280;59992;47.490;8.736;2022-10-01T04:47:04;96461.98;;;8.04;93.14
72118;BME280;59992;47.490;8.736;2022-10-01T04:49:56;96465.97;;;8.07;94.14
72118;BME280;59992;47.490;8.736;2022-10-01T04:52:46;96467.48;;;8.11;93.35
72118;BME280;59992;47.490;8.736;2022-10-01T04:55:37;96475.02;;;8.14;92.95
72118;BME280;59992;47.490;8.736;2022-10-01T04:58:28;96478.14;;;8.19;92.95
72118;BME280;59992;47.490;8.736;2022-10-01T05:01:19;96490.66;;;8.29;92.60
72118;BME280;59992;47.490;8.736;2022-10-01T05:04:10;96492.66;;;8.34;92.47
72118;BME280;59992;47.490;8.736;2022-10-01T05:07:01;96497.67;;;8.35;92.08
72118;BME280;59992;47.490;8.736;2022-10-01T05:09:51;96497.23;;;8.36;91.98
72118;BME280;59992;47.490;8.736;2022-10-01T05:12:43;96499.65;;;8.36;93.05
72118;BME280;59992;47.490;8.736;2022-10-01T05:15:35;96498.17;;;8.35;92.78
72118;BME280;59992;47.490;8.736;2022-10-01T05:18:25;96493.94;;;8.34;92.97
72118;BME280;59992;47.490;8.736;2022-10-01T05:21:16;96494.41;;;8.39;93.97
72118;BME280;59992;47.490;8.736;2022-10-01T05:24:08;96497.38;;;8.43;92.86
72118;BME280;59992;47.490;8.736;2022-10-01T05:26:58;96491.86;;;8.47;92.58
72118;BME280;59992;47.490;8.736;2022-10-01T05:29:49;96484.21;;;8.54;92.40
72118;BME280;59992;47.490;8.736;2022-10-01T05:32:41;96478.68;;;8.60;92.06
72118;BME280;59992;47.490;8.736;2022-10-01T05:35:32;96473.20;;;8.65;91.87
72118;BME280;59992;47.490;8.736;2022-10-01T05:38:22;96470.23;;;8.72;91.65
72118;BME280;59992;47.490;8.736;2022-10-01T05:41:14;96474.60;;;8.76;92.52
72118;BME280;59992;47.490;8.736;2022-10-01T05:44:04;96477.41;;;8.76;93.04
72118;BME280;59992;47.490;8.736;2022-10-01T05:46:55;96478.17;;;8.77;92.17
72118;BME280;59992;47.490;8.736;2022-10-01T05:49:46;96482.84;;;8.81;91.98
72118;BME280;59992;47.490;8.736;2022-10-01T05:52:37;96491.23;;;8.81;91.68
72118;BME280;59992;47.490;8.736;2022-10-01T05:55:29;96486.09;;;8.84;91.63
72118;BME280;59992;47.490;8.736;2022-10-01T05:58:21;96492.17;;;8.86;91.43
72118;BME280;59992;47.490;8.736;2022-10-01T06:01:12;96488.23;;;8.90;91.82
72118;BME280;59992;47.490;8.736;2022-10-01T06:04:03;96485.33;;;8.89;91.83
72118;BME280;59992;47.490;8.736;2022-10-01T06:06:55;96481.66;;;8.94;91.44
72118;BME280;59992;47.490;8.736;2022-10-01T06:09:46;96482.59;;;9.00;91.23
72118;BME280;59992;47.490;8.736;2022-10-01T06:12:36;96482.46;;;9.06;91.74
72118;BME280;59992;47.490;8.736;2022-10-01T06:15:28;96481.01;;;9.09;92.58
72118;BME280;59992;47.490;8.736;2022-10-01T06:18:18;96481.77;;;9.14;92.60
72118;BME280;59992;47.490;8.736;2022-10-01T06:21:09;96485.36;;;9.16;92.68
72118;BME280;59992;47.490;8.736;2022-10-01T06:24:00;96485.55;;;9.19;91.52
72118;BME280;59992;47.490;8.736;2022-10-01T06:26:50;96482.48;;;9.24;91.81
72118;BME280;59992;47.490;8.736;2022-10-01T06:29:41;96484.80;;;9.32;91.24
72118;BME280;59992;47.490;8.736;2022-10-01T06:32:32;96476.86;;;9.36;91.09
72118;BME280;59992;47.490;8.736;2022-10-01T06:35:23;96473.23;;;9.37;91.42
72118;BME280;59992;47.490;8.736;2022-10-01T06:38:14;96474.51;;;9.42;90.92
72118;BME280;59992;47.490;8.736;2022-10-01T06:41:05;96481.24;;;9.46;90.48
72118;BME280;59992;47.490;8.736;2022-10-01T06:43:56;96483.38;;;9.52;90.38
72118;BME280;59992;47.490;8.736;2022-10-01T06:46:47;96475.08;;;9.58;90.05
72118;BME280;59992;47.490;8.736;2022-10-01T06:49:38;96472.48;;;9.62;89.83
72118;BME280;59992;47.490;8.736;2022-10-01T06:52:30;96471.10;;;9.64;89.71
72118;BME280;59992;47.490;8.736;2022-10-01T06:55:39;96472.02;;;9.65;89.23
72118;BME280;59992;47.490;8.736;2022-10-01T06:58:29;96472.23;;;9.64;89.59
72118;BME280;59992;47.490;8.736;2022-10-01T07:01:20;96465.73;;;9.65;89.80
72118;BME280;59992;47.490;8.736;2022-10-01T07:04:11;96470.77;;;9.69;89.96
72118;BME280;59992;47.490;8.736;2022-10-01T07:07:02;96467.81;;;9.68;90.45
72118;BME280;59992;47.490;8.736;2022-10-01T07:09:52;96461.55;;;9.69;90.28
72118;BME280;59992;47.490;8.736;2022-10-01T07:12:43;96459.70;;;9.71;91.12
72118;BME280;59992;47.490;8.736;2022-10-01T07:15:34;96461.83;;;9.77;90.49
72118;BME280;59992;47.490;8.736;2022-10-01T07:18:26;96468.33;;;9.81;90.25
72118;BME280;59992;47.490;8.736;2022-10-01T07:21:17;96467.46;;;9.90;90.04
72118;BME280;59992;47.490;8.736;2022-10-01T07:24:08;96467.45;;;10.01;89.82
72118;BME280;59992;47.490;8.736;2022-10-01T07:26:59;96462.36;;;10.09;89.56
72118;BME280;59992;47.490;8.736;2022-10-01T07:29:49;96463.11;;;10.13;89.77
72118;BME280;59992;47.490;8.736;2022-10-01T07:32:43;96457.66;;;10.13;88.97
72118;BME280;59992;47.490;8.736;2022-10-01T07:35:36;96460.66;;;10.17;88.20
72118;BME280;59992;47.490;8.736;2022-10-01T07:38:27;96463.90;;;10.22;87.24
72118;BME280;59992;47.490;8.736;2022-10-01T07:41:18;96465.48;;;10.27;86.64
72118;BME280;59992;47.490;8.736;2022-10-01T07:44:09;96460.61;;;10.32;86.63
72118;BME280;59992;47.490;8.736;2022-10-01T07:47:01;96467.50;;;10.31;83.85
72118;BME280;59992;47.490;8.736;2022-10-01T07:49:52;96468.85;;;10.36;85.24
72118;BME280;59992;47.490;8.736;2022-10-01T07:52:44;96466.60;;;10.38;85.31
72118;BME280;59992;47.490;8.736;2022-10-01T07:55:34;96466.11;;;10.40;85.37
72118;BME280;59992;47.490;8.736;2022-10-01T07:58:25;96459.38;;;10.48;86.54
72118;BME280;59992;47.490;8.736;2022-10-01T08:01:16;96463.23;;;10.55;85.66
72118;BME280;59992;47.490;8.736;2022-10-01T08:04:07;96463.94;;;10.62;84.80
72118;BME280;59992;47.490;8.736;2022-10-01T08:07:11;96465.48;;;10.67;85.76
72118;BME280;59992;47.490;8.736;2022-10-01T08:10:04;96463.84;;;10.68;85.59
72118;BME280;59992;47.490;8.736;2022-10-01T08:13:00;96471.08;;;10.71;85.37
72118;BME280;59992;47.490;8.736;2022-10-01T08:15:56;96465.30;;;10.77;85.21
72118;BME280;59992;47.490;8.736;2022-10-01T08:18:47;96464.40;;;10.77;83.33
72118;BME280;59992;47.490;8.736;2022-10-01T08:21:43;96466.52;;;10.83;84.10
72118;BME280;59992;47.490;8.736;2022-10-01T08:24:34;96469.88;;;10.88;83.94
72118;BME280;59992;47.490;8.736;2022-10-01T08:27:25;96467.83;;;10.95;84.79
72118;BME280;59992;47.490;8.736;2022-10-01T08:30:16;96469.40;;;11.01;84.38
72118;BME280;59992;47.490;8.736;2022-10-01T08:33:08;96465.91;;;11.08;85.05
72118;BME280;59992;47.490;8.736;2022-10-01T08:36:05;96467.20;;;11.10;82.87
72118;BME280;59992;47.490;8.736;2022-10-01T08:38:57;96459.00;;;11.08;82.74
72118;BME280;59992;47.490;8.736;2022-10-01T08:41:54;96449.38;;;11.07;82.56
72118;BME280;59992;47.490;8.736;2022-10-01T08:44:51;96444.67;;;11.06;83.03
72118;BME280;59992;47.490;8.736;2022-10-01T08:47:45;96443.16;;;11.06;82.95
72118;BME280;59992;47.490;8.736;2022-10-01T08:50:43;96453.66;;;11.12;84.11
72118;BME280;59992;47.490;8.736;2022-10-01T08:53:41;96460.50;;;11.13;83.31
72118;BME280;59992;47.490;8.736;2022-10-01T08:56:36;96457.69;;;11.12;83.21
72118;BME280;59992;47.490;8.736;2022-10-01T08:59:40;96452.91;;;11.20;83.33
72118;BME280;59992;47.490;8.736;2022-10-01T09:02:33;96452.20;;;11.26;83.50
72118;BME280;59992;47.490;8.736;2022-10-01T09:05:29;96449.60;;;11.24;82.95
72118;BME280;59992;47.490;8.736;2022-10-01T09:08:32;96460.44;;;11.31;82.98
72118;BME280;59992;47.490;8.736;2022-10-01T09:11:48;96460.14;;;11.33;83.38
72118;BME280;59992;47.490;8.736;2022-10-01T09:14:58;96455.48;;;11.38;82.37
72118;BME280;59992;47.490;8.736;2022-10-01T09:17:59;96456.81;;;11.42;81.61
72118;BME280;59992;47.490;8.736;2022-10-01T09:20:56;96464.18;;;11.54;82.14
72118;BME280;59992;47.490;8.736;2022-10-01T09:23:56;96469.20;;;11.58;81.86
72118;BME280;59992;47.490;8.736;2022-10-01T09:26:51;96473.00;;;11.65;81.50
72118;BME280;59992;47.490;8.736;2022-10-01T09:29:46;96469.79;;;11.62;80.95
72118;BME280;59992;47.490;8.736;2022-10-01T09:32:40;96464.44;;;11.66;81.04
72118;BME280;59992;47.490;8.736;2022-10-01T09:35:37;96468.52;;;11.63;81.89
72118;BME280;59992;47.490;8.736;2022-10-01T09:38:35;96468.99;;;11.59;82.76
72118;BME280;59992;47.490;8.736;2022-10-01T09:41:27;96465.05;;;11.59;82.59
72118;BME280;59992;47.490;8.736;2022-10-01T09:44:24;96466.20;;;11.60;82.93
72118;BME280;59992;47.490;8.736;2022-10-01T09:47:17;96461.95;;;11.60;83.61
72118;BME280;59992;47.490;8.736;2022-10-01T09:50:13;96474.08;;;11.66;84.07
72118;BME280;59992;47.490;8.736;2022-10-01T09:53:07;96472.46;;;11.64;83.43
72118;BME280;59992;47.490;8.736;2022-10-01T09:56:07;96477.06;;;11.61;83.21
72118;BME280;59992;47.490;8.736;2022-10-01T09:59:04;96476.50;;;11.58;82.97
72118;BME280;59992;47.490;8.736;2022-10-01T10:01:58;96474.84;;;11.59;83.13
72118;BME280;59992;47.490;8.736;2022-10-01T10:05:00;96482.73;;;11.60;83.22
72118;BME280;59992;47.490;8.736;2022-10-01T10:07:53;96491.54;;;11.67;83.61
72118;BME280;59992;47.490;8.736;2022-10-01T10:10:53;96488.14;;;11.69;83.52
72118;BME280;59992;47.490;8.736;2022-10-01T10:13:51;96495.19;;;11.69;83.23
72118;BME280;59992;47.490;8.736;2022-10-01T10:16:45;96496.21;;;11.73;83.51
72118;BME280;59992;47.490;8.736;2022-10-01T10:19:38;96499.04;;;11.77;83.07
72118;BME280;59992;47.490;8.736;2022-10-01T10:22:29;96496.19;;;11.81;83.30
72118;BME280;59992;47.490;8.736;2022-10-01T10:25:23;96492.99;;;11.90;83.34
72118;BME280;59992;47.490;8.736;2022-10-01T10:28:21;96502.08;;;11.98;82.07
72118;BME280;59992;47.490;8.736;2022-10-01T10:31:15;96508.42;;;12.05;82.50
72118;BME280;59992;47.490;8.736;2022-10-01T10:34:10;96506.66;;;12.04;81.84
72118;BME280;59992;47.490;8.736;2022-10-01T10:37:10;96515.58;;;12.08;82.06
72118;BME280;59992;47.490;8.736;2022-10-01T10:40:03;96517.54;;;12.06;82.15
72118;BME280;59992;47.490;8.736;2022-10-01T10:42:57;96514.27;;;12.06;82.04
72118;BME280;59992;47.490;8.736;2022-10-01T10:45:51;96514.92;;;12.11;82.03
72118;BME280;59992;47.490;8.736;2022-10-01T10:48:44;96515.29;;;12.12;82.75
72118;BME280;59992;47.490;8.736;2022-10-01T10:51:49;96517.90;;;12.15;82.20
72118;BME280;59992;47.490;8.736;2022-10-01T10:54:47;96525.75;;;12.20;82.61
72118;BME280;59992;47.490;8.736;2022-10-01T10:57:38;96528.19;;;12.21;81.74
72118;BME280;59992;47.490;8.736;2022-10-01T11:00:28;96536.16;;;12.23;82.14
72118;BME280;59992;47.490;8.736;2022-10-01T11:03:22;96542.20;;;12.17;81.64
72118;BME280;59992;47.490;8.736;2022-10-01T11:06:15;96539.73;;;12.12;81.62
72118;BME280;59992;47.490;8.736;2022-10-01T11:09:09;96534.18;;;12.09;82.92
72118;BME280;59992;47.490;8.736;2022-10-01T11:12:08;96527.59;;;12.11;82.87
72118;BME280;59992;47.490;8.736;2022-10-01T11:15:17;96529.75;;;12.16;83.80
72118;BME280;59992;47.490;8.736;2022-10-01T11:18:29;96519.08;;;12.21;83.46
72118;BME280;59992;47.490;8.736;2022-10-01T11:21:37;96523.94;;;12.22;82.94
72118;BME280;59992;47.490;8.736;2022-10-01T11:24:52;96528.66;;;12.26;82.55
72118;BME280;59992;47.490;8.736;2022-10-01T11:27:59;96528.98;;;12.28;82.57
72118;BME280;59992;47.490;8.736;2022-10-01T11:31:00;96527.85;;;12.30;82.59
72118;BME280;59992;47.490;8.736;2022-10-01T11:34:06;96523.38;;;12.32;82.40
72118;BME280;59992;47.490;8.736;2022-10-01T11:37:11;96532.42;;;12.33;83.29
72118;BME280;59992;47.490;8.736;2022-10-01T11:40:13;96532.14;;;12.35;83.18
72118;BME280;59992;47.490;8.736;2022-10-01T11:43:09;96528.48;;;12.33;81.84
72118;BME280;59992;47.490;8.736;2022-10-01T11:46:09;96525.86;;;12.26;82.62
72118;BME280;59992;47.490;8.736;2022-10-01T11:49:13;96526.44;;;12.20;82.68
72118;BME280;59992;47.490;8.736;2022-10-01T11:52:13;96524.71;;;12.25;82.39
72118;BME280;59992;47.490;8.736;2022-10-01T11:55:14;96527.61;;;12.26;83.12
72118;BME280;59992;47.490;8.736;2022-10-01T11:58:29;96528.09;;;12.31;83.19
72118;BME280;59992;47.490;8.736;2022-10-01T12:01:44;96541.05;;;12.28;83.35
72118;BME280;59992;47.490;8.736;2022-10-01T12:04:43;96551.02;;;12.29;83.47
72118;BME280;59992;47.490;8.736;2022-10-01T12:07:40;96558.76;;;12.29;82.23
72118;BME280;59992;47.490;8.736;2022-10-01T12:10:39;96564.45;;;12.30;82.41
72118;BME280;59992;47.490;8.736;2022-10-01T12:13:35;96563.73;;;12.25;81.77
72118;BME280;59992;47.490;8.736;2022-10-01T12:16:38;96557.00;;;12.15;81.61
72118;BME280;59992;47.490;8.736;2022-10-01T12:19:33;96551.46;;;12.16;83.12
72118;BME280;59992;47.490;8.736;2022-10-01T12:22:28;96555.52;;;12.22;82.54
72118;BME280;59992;47.490;8.736;2022-10-01T12:25:22;96549.48;;;12.27;82.79
72118;BME280;59992;47.490;8.736;2022-10-01T12:28:20;96538.83;;;12.21;82.45
72118;BME280;59992;47.490;8.736;2022-10-01T12:31:18;96542.94;;;12.25;82.53
72118;BME280;59992;47.490;8.736;2022-10-01T12:34:18;96557.13;;;12.12;82.84
72118;BME280;59992;47.490;8.736;2022-10-01T12:37:19;96550.16;;;12.16;82.88
72118;BME280;59992;47.490;8.736;2022-10-01T12:40:22;96547.27;;;12.16;83.71
72118;BME280;59992;47.490;8.736;2022-10-01T12:43:43;96547.56;;;12.12;83.68
72118;BME280;59992;47.490;8.736;2022-10-01T12:46:41;96547.84;;;12.08;83.59
72118;BME280;59992;47.490;8.736;2022-10-01T12:49:39;96557.02;;;12.07;83.62
72118;BME280;59992;47.490;8.736;2022-10-01T12:52:41;96563.15;;;12.04;84.43
72118;BME280;59992;47.490;8.736;2022-10-01T12:55:50;96569.74;;;12.03;84.92
72118;BME280;59992;47.490;8.736;2022-10-01T12:59:01;96561.05;;;11.97;84.43
72118;BME280;59992;47.490;8.736;2022-10-01T13:02:03;96564.08;;;11.97;85.11
72118;BME280;59992;47.490;8.736;2022-10-01T13:05:18;96562.59;;;12.01;84.63
72118;BME280;59992;47.490;8.736;2022-10-01T13:08:24;96558.35;;;12.02;84.81
72118;BME280;59992;47.490;8.736;2022-10-01T13:11:33;96563.52;;;12.04;84.27
72118;BME280;59992;47.490;8.736;2022-10-01T13:14:28;96573.20;;;11.99;85.18
72118;BME280;59992;47.490;8.736;2022-10-01T13:17:25;96573.01;;;11.93;85.40
72118;BME280;59992;47.490;8.736;2022-10-01T13:20:25;96570.84;;;11.98;85.85
72118;BME280;59992;47.490;8.736;2022-10-01T13:23:22;96569.81;;;11.91;86.13
72118;BME280;59992;47.490;8.736;2022-10-01T13:26:19;96584.27;;;11.87;86.22
72118;BME280;59992;47.490;8.736;2022-10-01T13:29:22;96580.09;;;11.86;86.17
72118;BME280;59992;47.490;8.736;2022-10-01T13:32:32;96579.84;;;11.83;86.89
72118;BME280;59992;47.490;8.736;2022-10-01T13:35:26;96581.44;;;11.85;86.34
72118;BME280;59992;47.490;8.736;2022-10-01T13:38:27;96579.74;;;11.73;86.36
72118;BME280;59992;47.490;8.736;2022-10-01T13:41:21;96574.68;;;11.67;86.72
72118;BME280;59992;47.490;8.736;2022-10-01T13:44:21;96572.90;;;11.50;86.32
72118;BME280;59992;47.490;8.736;2022-10-01T13:47:18;96573.75;;;11.60;86.23
72118;BME280;59992;47.490;8.736;2022-10-01T13:50:19;96570.95;;;11.51;86.38
72118;BME280;59992;47.490;8.736;2022-10-01T13:53:17;96575.45;;;11.47;87.43
72118;BME280;59992;47.490;8.736;2022-10-01T13:56:12;96575.02;;;11.41;87.66
72118;BME280;59992;47.490;8.736;2022-10-01T13:59:04;96571.98;;;11.47;87.38
72118;BME280;59992;47.490;8.736;2022-10-01T14:02:32;96573.68;;;11.51;87.92
72118;BME280;59992;47.490;8.736;2022-10-01T14:05:30;96566.59;;;11.55;88.28
72118;BME280;59992;47.490;8.736;2022-10-01T14:08:27;96562.33;;;11.63;87.02
72118;BME280;59992;47.490;8.736;2022-10-01T14:11:24;96559.11;;;11.65;87.79
72118;BME280;59992;47.490;8.736;2022-10-01T14:14:35;96553.89;;;11.61;87.25
72118;BME280;59992;47.490;8.736;2022-10-01T14:17:45;96570.14;;;11.54;88.05
72118;BME280;59992;47.490;8.736;2022-10-01T14:20:48;96560.27;;;11.52;87.93
72118;BME280;59992;47.490;8.736;2022-10-01T14:23:46;96562.20;;;11.49;88.18
72118;BME280;59992;47.490;8.736;2022-10-01T14:26:48;96576.17;;;11.51;88.85
72118;BME280;59992;47.490;8.736;2022-10-01T14:29:50;96578.05;;;11.49;88.63
72118;BME280;59992;47.490;8.736;2022-10-01T14:33:07;96569.80;;;11.51;89.56
72118;BME280;59992;47.490;8.736;2022-10-01T14:36:12;96571.58;;;11.47;89.14
72118;BME280;59992;47.490;8.736;2022-10-01T14:39:13;96572.12;;;11.47;89.88
72118;BME280;59992;47.490;8.736;2022-10-01T14:42:12;96577.88;;;11.54;88.64
72118;BME280;59992;47.490;8.736;2022-10-01T14:45:15;96581.19;;;11.51;89.94
72118;BME280;59992;47.490;8.736;2022-10-01T14:48:08;96587.82;;;11.54;89.15
72118;BME280;59992;47.490;8.736;2022-10-01T14:51:00;96590.70;;;11.55;89.99
72118;BME280;59992;47.490;8.736;2022-10-01T14:53:52;96597.41;;;11.58;89.64
72118;BME280;59992;47.490;8.736;2022-10-01T14:56:44;96594.02;;;11.61;89.73
72118;BME280;59992;47.490;8.736;2022-10-01T14:59:38;96599.80;;;11.63;89.40
72118;BME280;59992;47.490;8.736;2022-10-01T15:02:29;96608.38;;;11.67;89.31
72118;BME280;59992;47.490;8.736;2022-10-01T15:05:29;96618.15;;;11.61;89.70
72118;BME280;59992;47.490;8.736;2022-10-01T15:08:34;96616.31;;;11.65;89.70
72118;BME280;59992;47.490;8.736;2022-10-01T15:11:28;96617.53;;;11.60;90.15
72118;BME280;59992;47.490;8.736;2022-10-01T15:14:22;96622.18;;;11.54;90.35
72118;BME280;59992;47.490;8.736;2022-10-01T15:17:20;96626.71;;;11.52;90.48
72118;BME280;59992;47.490;8.736;2022-10-01T15:20:14;96619.94;;;11.58;90.40
72118;BME280;59992;47.490;8.736;2022-10-01T15:23:06;96627.82;;;11.57;90.83
72118;BME280;59992;47.490;8.736;2022-10-01T15:26:00;96620.39;;;11.58;90.59
72118;BME280;59992;47.490;8.736;2022-10-01T15:29:02;96612.85;;;11.55;90.49
72118;BME280;59992;47.490;8.736;2022-10-01T15:31:56;96611.33;;;11.54;90.95
72118;BME280;59992;47.490;8.736;2022-10-01T15:34:50;96619.21;;;11.54;90.53